الصفحة الرئيسية
METAR-TAF:

METAR-TAF

مطار :

مكسيكالي, المكسيك

دائرة عرض: 32-37-50N, خط طول: 115-14-30W, ارتفاع: 22 متر

مراقبة الطقس الحالي

تاريخ ووقت الإصدار 1ساعة و 12 دقيقة قبل الساعة 03:49UTC
ريح 4 عقدة من الشرق/الجنوب الشرقي
درجة الحرارة 16°درجة مئوية
الرطوبة 72%
ضغط 1016 hPa
الرؤية: 16.1 كم
غيوم متفرقة على ارتفاع 8000 قدم

METAR: MMML 220349Z 11004KT 10SM SCT080 16/11 A3000 RMK 8/070 SC

زمن: 23:01 (05:01 UTC)

توقعات

تاريخ ووقت الإصدار 11ساعات و 59 دقيقة قبل الساعة 17:02UTC
التوقعات صالحة من21 الساعة 18 UTC إلى 22 الساعة 18 UTC
ريح 12 عقدة من الشرق/الجنوب الشرقي
الرؤية: 10 كم
غيوم متفرقة على ارتفاع 4000 قدم
غيوم مفككة على ارتفاع 8000 قدم
ملبد بالغيوم على ارتفاع 20000 قدم
مؤقت
من 21 الساعة 19 UTC إلى 21 الساعة 23 UTC
الرؤية: 9.7 كم
غيوم مفككة على ارتفاع 4000 قدم
مطر
من 22 الساعة 0300 UTC
ريح 10 عقدة من الجنوب الغربي
الرؤية: 10 كم
غيوم متفرقة على ارتفاع 8000 قدم
غيوم مفككة على ارتفاع 20000 قدم

TAF: MMML 211702Z 2118/2218 12012KT P6SM SCT040 BKN080 OVC200 TEMPO 2119/2123 6SM RA BKN040 FM220300 22010KT P6SM SCT080 BKN200

أرصاد الطقس والتوقعات من أكثر من 4000 مطار (تقارير الطقس للمطار METAR والتنبؤ بالطقس بالمطارTAF).

المحطات المتاحة هي النقط الصفراء والحمراء على الخريطة.

حرك المؤشر فوق النقطة لمعرفة اسم المحطة.

ثم انقر لمعرفة أرصاد وتوقعات الطقس.

لتغيير الخارطة: اضغط على الأزرار الخضراء مع رمز الصليب الأسود للتكبير. على الزر الأخضر مع شرطة للتصغير، أو على الأسهم الخضراء للخرائط المجاورة.


METAR-TAF: